If you wish to contribute or participate in the discussions about articles you are invited to join SKYbrary as a registered user

 Actions

Antananarivo/Ivato International Airport

From SKYbrary Wiki

FMMI /
Revision as of 14:27, 24 October 2014 by Timo.Kouwenhoven (talk | contribs)
Airport
ICAO: FMMI – IATA: TNR
Summary
Name Antananarivo/Ivato International Airport
Region Africa
Territory Madagascar MG.gif
Location Antananarivo
Serving Antananarivo
Elevation 1,279.55 m
4,198 ft
4,198 ft1,279.55 m
Coordinates 18° 47' 47.00" S, 47° 28' 34.00" E
Runways
Designator Length Width Surface ROPS
11/29 3100 m10,170.604 ft
45 m147.638 ft
ASP yes/yes


METAR
Observation FMMI 152130Z 07002KT 9999 FEW017 15/10 Q1023 NOSIG
Station Antananarivo / Ivato
Date/Time 15 September 2019 21:30:00
Wind direction 70°
Wind speed 02 kts
Lowest cloud amount few clouds
Temperature 15°C
Dew point 10°C
Humidity 72%
QNH 1023 hPa
Weather condition n/a

Antananarivo/Ivato International Airport

ICAO: FMMI IATA: TNR

Description

Airport serving Antananarivo, Madagascar.

Climatology

Maps

Terrain

Loading map...

Airport Layout

Loading map...


Accidents & Serious Incidents at or in vicinity of FMMI

None on SKYbrary